• Join FlightAware (Why Join?)
  • Login
  • US Flag 
Rudolph Flight #1: Arrived! 
04:56AM EST


 

Airport Tracker/Info


-or-


 

Live Flight TrackerFlight Track Log ✈ LAN438 ✈ 30-Apr-2013 ✈ SABE / AEP - SCEL / SCL

Flight Track Log - Related Links

Times and Time Zones

All times are in EDT time to prevent confusion due to time zone crossing. See the LAN438 flight status page for this flight to view local times or setup timezone preferences in your user account.

Time Position Orientation Groundspeed Altitude Reporting Facility
EDT Latitude Longitude Course Direction KTS MPH feet Rate Location/Type
07:08AM -34.5270 -58.5010 269° West 281 323 8,100  Level FlightAware
07:09AM -34.5280 -58.5500 269° West 281 323 8,100 2,760 Level FlightAware
07:10AM -34.5200 -58.6240 277° West 326 375 11,600 4,200 Climbing FlightAware
07:10AM -34.5150 -58.6950 275° West 336 387 13,700 3,120 Climbing FlightAware
07:11AM -34.5100 -58.7800 274° West 338 389 16,100 2,940 Climbing FlightAware
07:12AM -34.5050 -58.8560 275° West 345 397 17,900 2,700 Climbing FlightAware
07:12AM -34.5000 -58.9440 274° West 349 402 20,000 2,520 Climbing FlightAware
07:13AM -34.4950 -59.0230 274° West 358 412 21,500 2,520 Climbing FlightAware
07:14AM -34.4890 -59.1130 275° West 353 406 23,600 2,280 Climbing FlightAware
07:15AM -34.4840 -59.1910 274° West 361 415 24,800 1,800 Climbing FlightAware
07:15AM -34.4790 -59.2620 275° West 364 419 26,000 1,860 Climbing FlightAware
07:16AM -34.4730 -59.3660 274° West 369 425 27,500 1,800 Climbing FlightAware
07:17AM -34.4670 -59.4510 275° West 377 434 28,600 1,740 Climbing FlightAware
07:19AM -34.4971 -59.6297 274° West  Level FlightAware Approximate
07:19AM -34.4440 -59.7910 274° West 374 430 33,300  Level FlightAware
07:20AM -34.4913 -59.7235 274° West  Level FlightAware Approximate
07:21AM -34.4330 -59.9450 275° West 363 418 34,000  Level FlightAware
07:21AM -34.4260 -60.0370 275° West 366 421 34,000  Level FlightAware
07:22AM -34.4200 -60.1220 275° West 366 421 34,000  Level FlightAware
07:23AM -34.4150 -60.1970 275° West 367 422 34,000  Level FlightAware
07:23AM -34.4070 -60.2940 276° West 367 422 34,000  Level FlightAware
07:24AM -34.4010 -60.3760 275° West 366 421 34,000  Level FlightAware
07:25AM -34.3950 -60.4660 275° West 365 420 34,000  Level FlightAware
07:26AM -34.3880 -60.5500 276° West 365 420 34,000  Level FlightAware
07:26AM -34.3820 -60.6310 275° West 366 421 34,000  Level FlightAware
07:27AM -34.3750 -60.7230 275° West 364 419 34,000  Level FlightAware
07:28AM -34.3690 -60.8000 275° West 364 419 34,000  Level FlightAware
07:28AM -34.3630 -60.8810 275° West 364 419 34,000  Level FlightAware
07:29AM -34.3550 -60.9760 276° West 364 419 34,000  Level FlightAware
07:30AM -34.3480 -61.0590 276° West 365 420 34,000  Level FlightAware
07:30AM -34.3410 -61.1480 275° West 366 421 34,000  Level FlightAware
07:31AM -34.3340 -61.2340 276° West 365 420 34,000  Level FlightAware
07:32AM -34.3270 -61.3190 276° West 363 418 34,000  Level FlightAware
07:33AM -34.3180 -61.4340 275° West 361 415 34,000  Level FlightAware
07:33AM -34.3110 -61.5100 276° West 360 414 34,000  Level FlightAware
07:34AM -34.3060 -61.5810 275° West 360 414 34,000  Level FlightAware
07:35AM -34.3010 -61.6490 275° West 360 414 34,000  Level FlightAware
07:35AM -34.2960 -61.7180 275° West 360 414 34,000  Level FlightAware
07:36AM -34.2900 -61.8030 275° West 360 414 34,000  Level FlightAware
07:37AM -34.2850 -61.8710 275° West 360 414 34,000  Level FlightAware
07:38AM -34.2800 -61.9390 275° West 360 414 34,000  Level FlightAware
07:38AM -34.2750 -62.0080 275° West 360 414 34,000  Level FlightAware
07:39AM -34.2700 -62.0760 275° West 360 414 34,000  Level FlightAware
07:40AM -34.2640 -62.1610 275° West 360 414 34,000  Level FlightAware
07:40AM -34.2590 -62.2300 275° West 360 414 34,000  Level FlightAware
07:41AM -34.2540 -62.2980 275° West 360 414 34,000  Level FlightAware
07:42AM -34.2490 -62.3660 275° West 360 414 34,000  Level FlightAware
07:42AM -34.2440 -62.4340 275° West 360 414 34,000  Level FlightAware
07:43AM -34.2390 -62.5030 275° West 360 414 34,000  Level FlightAware
07:46AM -34.2241 -62.7257 275° West  Level FlightAware Approximate
07:47AM -34.2178 -62.8191 275° West  Level FlightAware Approximate
07:48AM -34.2113 -62.9125 275° West  Level FlightAware Approximate
07:49AM -34.2048 -63.0059 275° West  Level FlightAware Approximate
07:50AM -34.1983 -63.0993 275° West  Level FlightAware Approximate
07:51AM -34.1916 -63.1926 275° West  Level FlightAware Approximate
07:52AM -34.1849 -63.2860 275° West  Level FlightAware Approximate
07:53AM -34.1781 -63.3793 275° West  Level FlightAware Approximate
07:54AM -34.1712 -63.4726 275° West  Level FlightAware Approximate
07:55AM -34.1643 -63.5659 275° West  Level FlightAware Approximate
07:56AM -34.1573 -63.6592 275° West  Level FlightAware Approximate
07:57AM -34.1502 -63.7525 275° West  Level FlightAware Approximate
07:58AM -34.1431 -63.8457 275° West  Level FlightAware Approximate
07:59AM -34.1359 -63.9390 275° West  Level FlightAware Approximate
08:00AM -34.1286 -64.0322 275° West  Level FlightAware Approximate
08:01AM -34.1213 -64.1254 275° West  Level FlightAware Approximate
08:01AM -33.8580 -64.7640 275° West 354 407 34,000  Level FlightAware
08:02AM -33.8450 -64.8320 283° West 354 407 34,000  Level FlightAware
08:02AM -33.8330 -64.8970 283° West 354 407 34,000  Level FlightAware
08:03AM -33.8170 -64.9790 283° West 354 407 34,000  Level FlightAware
08:04AM -33.8050 -65.0440 283° West 354 407 34,000  Level FlightAware
08:04AM -33.7920 -65.1100 283° West 354 407 34,000  Level FlightAware
08:05AM -33.7520 -65.2710 287° West 354 407 34,000  Level FlightAware
08:06AM -33.7390 -65.3330 284° West 353 406 34,000  Level FlightAware
08:07AM -33.7170 -65.4310 285° West 355 409 34,000  Level FlightAware
08:07AM -33.7020 -65.4940 286° West 355 409 34,000  Level FlightAware
08:08AM -33.6750 -65.5990 287° West 354 407 34,000  Level FlightAware
08:09AM -33.6600 -65.6630 286° West 354 407 34,000  Level FlightAware
08:10AM -33.6410 -65.7430 286° West 354 407 34,000  Level FlightAware
08:11AM -33.6250 -65.8080 286° West 354 407 34,000  Level FlightAware
08:11AM -33.6100 -65.8720 286° West 354 407 34,000  Level FlightAware
08:12AM -33.5950 -65.9360 286° West 354 407 34,000  Level FlightAware
08:13AM -33.5790 -66.0000 287° West 354 407 34,000  Level FlightAware
08:13AM -33.5600 -66.0810 286° West 354 407 34,000  Level FlightAware
08:14AM -33.5450 -66.1450 286° West 354 407 34,000  Level FlightAware
08:15AM -33.5290 -66.2090 287° West 354 407 34,000  Level FlightAware
08:15AM -33.5140 -66.2730 286° West 354 407 34,000  Level FlightAware
08:16AM -33.4990 -66.3380 285° West 354 407 34,000  Level FlightAware
08:17AM -33.4790 -66.4180 287° West 354 407 34,000  Level FlightAware
08:18AM -33.4640 -66.4820 286° West 354 407 34,000 -240 Level FlightAware
08:20AM -33.4640 -66.6647 270° West  Level Estimated
08:21AM -33.4639 -66.7576 270° West  Level Estimated
08:22AM -33.4637 -66.8505 270° West  Level Estimated
08:23AM -33.4635 -66.9435 270° West  Level Estimated
08:24AM -33.4632 -67.0364 270° West  Level Estimated
08:25AM -33.4628 -67.1293 270° West  Level Estimated
08:26AM -33.4624 -67.2222 270° West  Level Estimated
08:27AM -33.4619 -67.3151 270° West  Level Estimated
08:28AM -33.4613 -67.4080 270° West  Level Estimated
08:29AM -33.4606 -67.5009 270° West  Level Estimated
08:30AM -33.4599 -67.5938 271° West  Level Estimated
08:31AM -33.4591 -67.6867 271° West  Level Estimated
08:32AM -33.4583 -67.7796 271° West  Level Estimated
08:33AM -33.4573 -67.8725 271° West  Level Estimated
08:34AM -33.4563 -67.9653 271° West  Level Estimated
08:35AM -33.4553 -68.0582 271° West  Level Estimated
08:36AM -33.4541 -68.1511 271° West  Level Estimated
08:37AM -33.4529 -68.2440 271° West  Level Estimated
08:38AM -33.4516 -68.3369 271° West  Level Estimated
08:39AM -33.4503 -68.4298 271° West  Level Estimated
08:40AM -33.4489 -68.5227 271° West  Level Estimated
08:41AM -33.4474 -68.6155 271° West  Level Estimated
08:42AM -33.4458 -68.7084 271° West  Level Estimated
08:43AM -33.4442 -68.8013 271° West  Level Estimated
08:44AM -33.4425 -68.8941 271° West  Level Estimated
08:45AM -33.4408 -68.9870 271° West  Level Estimated
08:46AM -33.4389 -69.0798 271° West  Level Estimated
08:47AM -33.4370 -69.1727 271° West  Level Estimated
08:48AM -33.4351 -69.2655 271° West  Level Estimated
08:48AM -32.8820 -69.9740 271° West 342 394 27,100  Level FlightAware
08:49AM -33.4330 -69.3584 271° West  Level Estimated
08:49AM -32.8770 -70.0660 274° West 336 387 25,300  Level FlightAware
08:50AM -32.8690 -70.1570 276° West 335 386 23,500 -2,160 Descending FlightAware
08:51AM -32.8610 -70.2450 276° West 338 389 21,700 -2,100 Descending FlightAware
08:51AM -32.8540 -70.3200 276° West 337 388 20,200 -1,860 Descending FlightAware
08:52AM -32.8470 -70.4010 276° West 323 372 19,100 -1,140 Descending FlightAware
08:53AM -32.8380 -70.4930 277° West 306 352 18,400 -480 Descending FlightAware
08:54AM -32.8330 -70.5500 276° West 306 352 18,400  Level FlightAware
08:54AM -32.8280 -70.6070 276° West 306 352 18,400  Level FlightAware
08:55AM -32.8220 -70.6790 276° West 306 352 18,400  Level FlightAware
08:56AM -32.8170 -70.7360 276° West 306 352 18,400  Level FlightAware
08:56AM -32.8120 -70.7930 276° West 306 352 18,400 -2,940 Level FlightAware
08:59AM -32.9709 -70.7910 179° South  Level Estimated
09:00AM -33.0484 -70.7901 179° South  Level Estimated
09:00AM -33.1630 -70.7980 179° South 230 265 4,900  Level FlightAware
09:01AM -33.1259 -70.7891 179° South  Level Estimated
09:01AM -33.2000 -70.7960 177° South 191 220 4,800  Level FlightAware
09:01AM -33.2160 -70.7950 177° South 183 211 4,600 -540 Descending FlightAware
09:02AM -33.2250 -70.7950 180° South 182 209 4,400 -1,080 Descending FlightAware
09:02AM -33.2520 -70.7930 176° South 186 214 3,800 -660 Descending FlightAware
09:03AM -33.2830 -70.7920 178° South 185 213 3,700 -180 Descending FlightAware
09:05AM -33.3930 -70.7858 177° South  Level Estimated
09:06AM -33.3930 -70.7858 207° Southwest  Level Estimated
09:07AM -33.3930 -70.7858 207° Southwest  Level Estimated
09:08AM -33.3930 -70.7858 207° Southwest  Level Estimated
09:09AM -33.3930 -70.7858 207° Southwest  Level Estimated
09:14AM -33.3930 -70.7858 270° West  Level Estimated
09:15AM -33.3930 -70.7858 270° West  Level Estimated
09:16AM -33.3930 -70.7858 270° West  Level Estimated
09:17AM -33.3930 -70.7858 270° West  Level Estimated
09:18AM -33.3930 -70.7858 270° West  Level Estimated